createdAt,value
2019-02-24T00:01:49.737Z,61.00
2019-02-24T00:04:19.358Z,60.90
2019-02-24T00:06:49.428Z,60.60
2019-02-24T00:09:19.051Z,61.30
2019-02-24T00:11:48.725Z,61.40
2019-02-24T00:14:18.900Z,61.90
2019-02-24T00:16:48.609Z,61.90
2019-02-24T00:19:18.279Z,62.30
2019-02-24T00:21:48.204Z,61.40
2019-02-24T00:24:17.884Z,61.80
2019-02-24T00:26:47.635Z,61.60
2019-02-24T00:29:17.248Z,61.10
2019-02-24T00:31:47.160Z,61.30
2019-02-24T00:34:17.213Z,61.30
2019-02-24T00:36:47.138Z,61.70
2019-02-24T00:39:16.837Z,61.70
2019-02-24T00:41:46.456Z,61.90
2019-02-24T00:44:16.087Z,62.00
2019-02-24T00:46:45.997Z,62.00
2019-02-24T00:49:15.660Z,61.90
2019-02-24T00:51:45.279Z,62.10
2019-02-24T00:54:14.895Z,62.60
2019-02-24T00:56:44.561Z,62.60
2019-02-24T00:59:14.435Z,62.40
2019-02-24T01:01:44.148Z,62.40
2019-02-24T01:04:13.768Z,62.50
2019-02-24T01:06:43.580Z,62.80
2019-02-24T01:09:13.204Z,62.90
2019-02-24T01:11:42.832Z,63.10
2019-02-24T01:14:12.757Z,63.00
2019-02-24T01:16:42.368Z,62.90
2019-02-24T01:19:12.012Z,63.10
2019-02-24T01:21:41.625Z,64.10
2019-02-24T01:24:11.260Z,63.60
2019-02-24T01:26:40.864Z,63.50
2019-02-24T01:29:10.512Z,63.90
2019-02-24T01:31:40.127Z,63.80
2019-02-24T01:34:10.053Z,63.70
2019-02-24T01:36:39.676Z,64.20
2019-02-24T01:39:09.302Z,64.10
2019-02-24T01:41:38.925Z,65.60
2019-02-24T01:44:08.542Z,65.30
2019-02-24T01:46:38.432Z,64.80
2019-02-24T01:49:08.058Z,65.00
2019-02-24T01:51:37.683Z,65.20
2019-02-24T01:54:07.387Z,66.40
2019-02-24T01:56:37.321Z,66.10
2019-02-24T01:59:06.938Z,65.40
2019-02-24T02:01:36.654Z,65.20
2019-02-24T02:04:06.394Z,65.30
2019-02-24T02:06:36.008Z,65.20
2019-02-24T02:09:06.612Z,65.30
2019-02-24T02:11:36.591Z,65.30
2019-02-24T02:14:06.211Z,65.80
2019-02-24T02:16:35.877Z,67.20
2019-02-24T02:19:05.493Z,67.10
2019-02-24T02:21:35.099Z,66.70
2019-02-24T02:24:04.731Z,66.70
2019-02-24T02:26:34.386Z,68.00
2019-02-24T02:29:04.080Z,67.80
2019-02-24T02:31:33.701Z,68.80
2019-02-24T02:34:03.576Z,67.00
2019-02-24T02:36:33.186Z,66.80
2019-02-24T02:39:02.850Z,67.10
2019-02-24T02:41:34.091Z,68.70
2019-02-24T02:44:03.732Z,68.80
2019-02-24T02:46:33.345Z,68.60
2019-02-24T02:49:04.534Z,69.10
2019-02-24T02:51:34.660Z,69.30
2019-02-24T02:54:04.685Z,70.00
2019-02-24T02:56:34.379Z,70.40
2019-02-24T02:59:04.003Z,69.40
2019-02-24T03:01:33.702Z,69.40
2019-02-24T03:04:03.321Z,70.70
2019-02-24T03:06:56.404Z,70.40
2019-02-24T03:09:26.030Z,70.80
2019-02-24T03:11:55.652Z,71.00
2019-02-24T03:14:25.299Z,71.80
2019-02-24T03:16:55.339Z,72.40
2019-02-24T03:19:24.974Z,71.80
2019-02-24T03:21:54.596Z,71.00
2019-02-24T03:24:24.221Z,70.60
2019-02-24T03:26:54.088Z,69.80
2019-02-24T03:29:23.691Z,70.90
2019-02-24T03:31:53.319Z,71.90
2019-02-24T03:34:23.254Z,71.40
2019-02-24T03:36:52.926Z,71.40
2019-02-24T03:39:22.545Z,71.30
2019-02-24T03:41:52.437Z,71.40
2019-02-24T03:44:22.098Z,71.50
2019-02-24T03:46:51.727Z,71.20
2019-02-24T03:49:21.340Z,70.80
2019-02-24T03:51:51.007Z,70.50
2019-02-24T03:54:20.624Z,70.60
2019-02-24T03:56:50.237Z,70.20
2019-02-24T03:59:19.847Z,70.40
2019-02-24T04:01:49.627Z,70.70
2019-02-24T04:04:19.592Z,72.30
2019-02-24T04:06:49.471Z,71.40
2019-02-24T04:09:19.304Z,71.60
2019-02-24T04:11:49.249Z,71.50
2019-02-24T04:14:18.874Z,70.80
2019-02-24T04:16:48.496Z,71.30
2019-02-24T04:19:18.113Z,71.30
2019-02-24T04:21:47.798Z,70.70
2019-02-24T04:24:17.438Z,70.60
2019-02-24T04:26:47.379Z,70.80
2019-02-24T04:29:24.552Z,70.90
2019-02-24T04:31:48.352Z,70.90
2019-02-24T04:34:17.969Z,70.70
2019-02-24T04:36:48.102Z,70.20
2019-02-24T04:39:18.416Z,70.40
2019-02-24T04:41:48.046Z,70.40
2019-02-24T04:44:17.660Z,70.70
2019-02-24T04:46:47.279Z,71.10
2019-02-24T04:49:17.180Z,71.00
2019-02-24T04:51:46.895Z,71.00
2019-02-24T04:54:16.509Z,70.90
2019-02-24T04:56:46.204Z,70.90
2019-02-24T04:59:16.170Z,70.90
2019-02-24T05:01:45.796Z,70.50
2019-02-24T05:04:15.419Z,70.80
2019-02-24T05:06:45.282Z,70.80
2019-02-24T05:09:15.474Z,70.80
2019-02-24T05:11:45.403Z,70.60
2019-02-24T05:14:15.045Z,70.60
2019-02-24T05:16:44.656Z,70.40
2019-02-24T05:19:14.529Z,70.70
2019-02-24T05:21:44.624Z,70.60
2019-02-24T05:24:14.245Z,70.80
2019-02-24T05:26:44.486Z,70.90
2019-02-24T05:29:14.587Z,71.10
2019-02-24T05:31:44.754Z,71.10
2019-02-24T05:34:14.452Z,70.80
2019-02-24T05:36:44.345Z,70.30
2019-02-24T05:39:14.272Z,70.90
2019-02-24T05:41:44.409Z,70.90
2019-02-24T05:44:14.036Z,71.10
2019-02-24T05:46:43.991Z,71.70
2019-02-24T05:49:13.698Z,70.90
2019-02-24T05:51:43.313Z,70.70
2019-02-24T05:54:12.988Z,71.10
2019-02-24T05:56:42.600Z,71.00
2019-02-24T05:59:12.468Z,71.20
2019-02-24T06:01:42.084Z,71.30
2019-02-24T06:04:12.013Z,71.20
2019-02-24T06:06:41.949Z,71.10
2019-02-24T06:09:11.567Z,70.90
2019-02-24T06:11:41.431Z,70.90
2019-02-24T06:14:11.054Z,71.30
2019-02-24T06:16:40.677Z,71.50
2019-02-24T06:19:10.306Z,71.30
2019-02-24T06:21:40.470Z,71.50
2019-02-24T06:24:10.326Z,71.40
2019-02-24T06:26:39.932Z,71.40
2019-02-24T06:29:09.821Z,71.30
2019-02-24T06:31:39.441Z,71.40
2019-02-24T06:34:09.076Z,71.30
2019-02-24T06:36:38.688Z,71.00
2019-02-24T06:39:08.996Z,71.00
2019-02-24T06:41:38.694Z,71.10
2019-02-24T06:44:08.362Z,71.40
2019-02-24T06:46:37.983Z,71.50
2019-02-24T06:49:07.601Z,71.80
2019-02-24T06:51:37.676Z,72.80
2019-02-24T06:54:07.561Z,72.90
2019-02-24T06:56:37.212Z,72.20
2019-02-24T06:59:06.830Z,72.20
2019-02-24T07:01:36.559Z,72.10
2019-02-24T07:04:06.179Z,72.00
2019-02-24T07:06:36.052Z,72.30
2019-02-24T07:09:07.211Z,72.10
2019-02-24T07:11:36.838Z,73.00
2019-02-24T07:14:06.549Z,72.90
2019-02-24T07:16:36.206Z,72.40
2019-02-24T07:19:06.219Z,72.90
2019-02-24T07:21:36.128Z,73.00
2019-02-24T07:24:05.760Z,72.80
2019-02-24T07:26:35.922Z,72.20
2019-02-24T07:29:05.767Z,72.90
2019-02-24T07:31:35.408Z,73.90
2019-02-24T07:34:05.305Z,75.10
2019-02-24T07:36:35.067Z,74.80
2019-02-24T07:39:05.921Z,74.60
2019-02-24T07:41:36.709Z,74.90
2019-02-24T07:44:06.649Z,75.20
2019-02-24T07:46:36.349Z,74.10
2019-02-24T07:49:05.989Z,74.80
2019-02-24T07:51:35.608Z,74.90
2019-02-24T07:54:05.227Z,74.60
2019-02-24T07:56:34.843Z,73.50
2019-02-24T07:59:04.466Z,73.70
2019-02-24T08:01:34.092Z,73.40
2019-02-24T08:04:03.700Z,72.70
2019-02-24T08:06:33.801Z,72.40
2019-02-24T08:09:04.530Z,71.90
2019-02-24T08:11:34.528Z,71.90
2019-02-24T08:14:04.478Z,71.30
2019-02-24T08:16:34.112Z,71.50
2019-02-24T08:19:03.725Z,71.30
2019-02-24T08:21:34.349Z,71.30
2019-02-24T08:24:04.042Z,71.20
2019-02-24T08:26:34.043Z,69.60
2019-02-24T08:29:03.653Z,69.30
2019-02-24T08:31:33.277Z,68.60
2019-02-24T08:34:03.030Z,70.20
2019-02-24T08:36:32.645Z,69.20
2019-02-24T08:39:02.263Z,68.70
2019-02-24T08:41:33.260Z,69.10
2019-02-24T08:44:03.117Z,66.80
2019-02-24T08:46:32.748Z,66.90
2019-02-24T08:49:02.528Z,66.90
2019-02-24T08:51:32.143Z,66.70
2019-02-24T08:54:02.351Z,66.30
2019-02-24T08:56:31.989Z,64.70
2019-02-24T08:59:02.318Z,64.70
2019-02-24T09:01:31.941Z,65.10
2019-02-24T09:04:01.558Z,64.90
2019-02-24T09:06:31.240Z,64.70
2019-02-24T09:09:01.178Z,65.70
2019-02-24T09:11:32.418Z,63.50
2019-02-24T09:14:02.076Z,64.90
2019-02-24T09:16:31.701Z,63.40
2019-02-24T09:19:01.332Z,62.10
2019-02-24T09:21:31.428Z,63.40
2019-02-24T09:24:01.104Z,63.00
2019-02-24T09:26:30.786Z,61.60
2019-02-24T09:29:00.650Z,60.00
2019-02-24T09:31:30.654Z,58.90
2019-02-24T09:34:00.388Z,63.00
2019-02-24T09:36:30.001Z,60.40
2019-02-24T09:38:59.981Z,59.90
2019-02-24T09:41:29.595Z,60.10
2019-02-24T09:43:59.220Z,59.20
2019-02-24T09:46:28.838Z,58.00
2019-02-24T09:48:58.467Z,60.50
2019-02-24T09:51:28.080Z,57.50
2019-02-24T09:53:57.700Z,59.20
2019-02-24T09:56:27.408Z,60.50
2019-02-24T09:58:57.332Z,57.90
2019-02-24T10:01:27.034Z,58.30
2019-02-24T10:03:57.008Z,52.00
2019-02-24T10:06:26.624Z,52.00
2019-02-24T10:08:56.248Z,55.60
2019-02-24T10:11:25.852Z,54.00
2019-02-24T10:13:55.746Z,54.40
2019-02-24T10:16:25.611Z,53.70
2019-02-24T10:18:55.483Z,53.40
2019-02-24T10:21:25.183Z,55.20
2019-02-24T10:23:54.807Z,52.60
2019-02-24T10:26:24.740Z,54.80
2019-02-24T10:28:54.377Z,53.10
2019-02-24T10:31:24.974Z,54.60
2019-02-24T10:33:54.845Z,54.50
2019-02-24T10:36:25.205Z,55.60
2019-02-24T10:38:55.114Z,52.10
2019-02-24T10:41:24.920Z,52.80
2019-02-24T10:43:54.880Z,52.60
2019-02-24T10:46:25.008Z,53.50
2019-02-24T10:49:03.110Z,53.10
2019-02-24T10:51:25.982Z,53.00
2019-02-24T10:53:55.640Z,53.60
2019-02-24T10:56:25.269Z,54.00
2019-02-24T10:58:54.983Z,53.40
2019-02-24T11:01:29.658Z,52.10
2019-02-24T11:03:56.672Z,53.00
2019-02-24T11:06:26.564Z,54.90
2019-02-24T11:08:56.507Z,50.50
2019-02-24T11:11:26.177Z,51.80
2019-02-24T11:13:56.116Z,51.70
2019-02-24T11:16:26.008Z,52.60
2019-02-24T11:18:55.628Z,51.60
2019-02-24T11:21:25.458Z,52.80
2019-02-24T11:23:55.098Z,53.20
2019-02-24T11:26:25.427Z,50.80
2019-02-24T11:28:55.054Z,50.60
2019-02-24T11:31:25.708Z,50.90
2019-02-24T11:33:55.421Z,50.90
2019-02-24T11:36:25.560Z,50.80
2019-02-24T11:38:55.466Z,52.40
2019-02-24T11:41:25.572Z,50.30
2019-02-24T11:43:55.419Z,51.10
2019-02-24T11:46:26.127Z,50.50
2019-02-24T11:48:55.828Z,51.00
2019-02-24T11:51:25.616Z,51.80
2019-02-24T11:53:55.267Z,48.60
2019-02-24T11:56:25.711Z,50.20
2019-02-24T11:58:55.328Z,50.60
2019-02-24T12:01:26.018Z,48.40
2019-02-24T12:03:55.702Z,47.50
2019-02-24T12:06:25.804Z,47.40
2019-02-24T12:08:55.705Z,47.50
2019-02-24T12:11:25.850Z,48.30
2019-02-24T12:13:55.473Z,46.90
2019-02-24T12:16:25.882Z,46.80
2019-02-24T12:18:55.654Z,47.80
2019-02-24T12:21:25.956Z,46.40
2019-02-24T12:23:55.692Z,44.90
2019-02-24T12:26:26.044Z,45.10
2019-02-24T12:28:55.952Z,47.20
2019-02-24T12:31:26.564Z,47.60
2019-02-24T12:33:56.911Z,47.10
2019-02-24T12:36:26.720Z,46.30
2019-02-24T12:38:56.336Z,43.60
2019-02-24T12:41:26.281Z,43.70
2019-02-24T12:43:55.986Z,45.20
2019-02-24T12:46:26.184Z,45.60
2019-02-24T12:48:55.821Z,43.90
2019-02-24T12:51:26.524Z,42.10
2019-02-24T12:53:56.169Z,44.30
2019-02-24T12:56:26.361Z,42.80
2019-02-24T12:58:55.996Z,43.40
2019-02-24T13:01:26.677Z,43.70
2019-02-24T13:03:57.168Z,42.50
2019-02-24T13:06:26.976Z,43.60
2019-02-24T13:08:56.652Z,43.90
2019-02-24T13:11:27.560Z,43.80
2019-02-24T13:13:57.190Z,45.60
2019-02-24T13:16:26.808Z,44.50
2019-02-24T13:18:56.432Z,45.00
2019-02-24T13:21:26.948Z,45.20
2019-02-24T13:23:56.800Z,43.30
2019-02-24T13:26:26.589Z,43.40
2019-02-24T13:28:56.529Z,43.30
2019-02-24T13:31:26.796Z,41.60
2019-02-24T13:33:56.416Z,40.00
2019-02-24T13:36:26.766Z,42.10
2019-02-24T13:38:58.271Z,40.60
2019-02-24T13:41:27.760Z,39.10
2019-02-24T13:43:57.702Z,38.80
2019-02-24T13:46:27.335Z,40.70
2019-02-24T13:48:56.949Z,41.20
2019-02-24T13:51:26.885Z,41.30
2019-02-24T13:53:56.742Z,41.80
2019-02-24T13:56:27.151Z,41.30
2019-02-24T13:58:56.853Z,40.30
2019-02-24T14:01:27.383Z,40.80
2019-02-24T14:03:57.320Z,40.40
2019-02-24T14:06:27.080Z,41.40
2019-02-24T14:08:57.046Z,37.40
2019-02-24T14:11:27.068Z,38.10
2019-02-24T14:13:56.735Z,38.10
2019-02-24T14:16:27.441Z,37.50
2019-02-24T14:18:57.071Z,37.80
2019-02-24T14:21:27.200Z,39.00
2019-02-24T14:23:56.885Z,40.50
2019-02-24T14:26:27.489Z,40.00
2019-02-24T14:28:57.375Z,39.60
2019-02-24T14:31:27.275Z,39.40
2019-02-24T14:33:57.510Z,38.70
2019-02-24T14:36:27.321Z,39.40
2019-02-24T14:38:56.949Z,40.60
2019-02-24T14:41:27.796Z,40.60
2019-02-24T14:43:57.399Z,39.90
2019-02-24T14:46:27.804Z,38.00
2019-02-24T14:48:57.492Z,38.70
2019-02-24T14:51:27.773Z,37.10
2019-02-24T14:53:57.393Z,39.00
2019-02-24T14:56:28.012Z,38.70
2019-02-24T14:58:57.624Z,39.10
2019-02-24T15:01:28.814Z,39.00
2019-02-24T15:03:58.548Z,38.50
2019-02-24T15:06:28.186Z,39.20
2019-02-24T15:08:58.097Z,36.20
2019-02-24T15:11:27.724Z,38.40
2019-02-24T15:13:57.349Z,36.20
2019-02-24T15:16:27.830Z,38.10
2019-02-24T15:18:57.443Z,36.20
2019-02-24T15:21:27.882Z,37.30
2019-02-24T15:23:57.536Z,37.80
2019-02-24T15:26:29.306Z,38.20
2019-02-24T15:28:59.512Z,39.40
2019-02-24T15:31:29.145Z,39.90
2019-02-24T15:33:58.842Z,40.60
2019-02-24T15:36:28.498Z,40.90
2019-02-24T15:38:58.163Z,41.30
2019-02-24T15:41:29.982Z,41.40
2019-02-24T15:43:59.705Z,42.00
2019-02-24T15:46:29.512Z,42.00
2019-02-24T15:48:59.202Z,44.70
2019-02-24T15:51:29.871Z,42.20
2019-02-24T15:53:59.633Z,42.30
2019-02-24T15:56:30.246Z,41.90
2019-02-24T15:59:00.124Z,42.40
2019-02-24T16:01:29.758Z,42.70
2019-02-24T16:03:59.440Z,42.80
2019-02-24T16:06:37.022Z,42.90
2019-02-24T16:09:00.740Z,43.30
2019-02-24T16:11:31.998Z,43.60
2019-02-24T16:14:01.615Z,43.80
2019-02-24T16:16:31.243Z,44.50
2019-02-24T16:19:00.852Z,45.20
2019-02-24T16:21:30.806Z,46.20
2019-02-24T16:24:00.593Z,45.40
2019-02-24T16:26:30.272Z,46.30
2019-02-24T16:28:59.974Z,47.60
2019-02-24T16:31:29.588Z,48.60
2019-02-24T16:33:59.201Z,48.00
2019-02-24T16:36:28.844Z,46.90
2019-02-24T16:38:58.452Z,46.50
2019-02-24T16:41:28.610Z,46.60
2019-02-24T16:43:58.251Z,47.00
2019-02-24T16:46:28.790Z,46.50
2019-02-24T16:48:58.468Z,46.30
2019-02-24T16:51:28.736Z,52.40
2019-02-24T16:53:58.658Z,52.90
2019-02-24T16:56:28.961Z,48.70
2019-02-24T16:58:58.606Z,48.30
2019-02-24T17:01:28.924Z,47.60
2019-02-24T17:03:58.564Z,48.40
2019-02-24T17:06:28.912Z,48.80
2019-02-24T17:09:03.143Z,48.90
2019-02-24T17:11:32.534Z,49.20
2019-02-24T17:14:02.152Z,49.60
2019-02-24T17:16:31.771Z,49.90
2019-02-24T17:19:01.752Z,51.20
2019-02-24T17:21:31.380Z,51.60
2019-02-24T17:24:01.010Z,52.20
2019-02-24T17:26:31.145Z,52.60
2019-02-24T17:29:00.832Z,53.30
2019-02-24T17:31:30.512Z,54.30
2019-02-24T17:34:00.137Z,54.00
2019-02-24T17:36:29.986Z,54.10
2019-02-24T17:38:59.608Z,54.20
2019-02-24T17:41:29.280Z,54.20
2019-02-24T17:43:58.908Z,54.80
2019-02-24T17:46:29.255Z,55.10
2019-02-24T17:48:58.881Z,55.50
2019-02-24T17:51:29.562Z,55.90
2019-02-24T17:53:59.432Z,56.20
2019-02-24T17:56:29.431Z,56.90
2019-02-24T17:58:59.084Z,56.90
2019-02-24T18:01:30.041Z,56.30
2019-02-24T18:04:00.316Z,56.70
2019-02-24T18:06:29.938Z,57.00
2019-02-24T18:08:59.596Z,57.70
2019-02-24T18:11:29.891Z,58.00
2019-02-24T18:13:59.513Z,58.10
2019-02-24T18:16:30.028Z,58.10
2019-02-24T18:19:00.027Z,57.60
2019-02-24T18:21:30.074Z,57.90
2019-02-24T18:23:59.775Z,58.60
2019-02-24T18:26:30.479Z,58.60
2019-02-24T18:29:00.096Z,58.60
2019-02-24T18:31:30.245Z,58.60
2019-02-24T18:33:59.899Z,58.80
2019-02-24T18:36:29.913Z,59.00
2019-02-24T18:38:59.823Z,59.70
2019-02-24T18:41:30.208Z,59.40
2019-02-24T18:44:00.223Z,59.20
2019-02-24T18:46:29.893Z,59.00
2019-02-24T18:48:59.501Z,59.30
2019-02-24T18:51:30.104Z,59.50
2019-02-24T18:53:59.713Z,59.40
2019-02-24T18:56:30.061Z,59.60
2019-02-24T18:58:59.667Z,60.30
2019-02-24T19:01:30.001Z,60.20
2019-02-24T19:03:59.918Z,60.90
2019-02-24T19:06:38.736Z,61.00
2019-02-24T19:09:01.583Z,61.50
2019-02-24T19:11:32.822Z,61.60
2019-02-24T19:14:02.674Z,61.60
2019-02-24T19:16:32.650Z,61.90
2019-02-24T19:19:02.343Z,62.00
2019-02-24T19:21:31.968Z,62.60
2019-02-24T19:24:01.606Z,62.90
2019-02-24T19:26:31.272Z,62.00
2019-02-24T19:29:00.898Z,62.60
2019-02-24T19:31:30.530Z,63.10
2019-02-24T19:34:06.400Z,63.10
2019-02-24T19:36:31.535Z,63.60
2019-02-24T19:39:01.591Z,63.50
2019-02-24T19:41:32.851Z,63.10
2019-02-24T19:44:02.525Z,63.20
2019-02-24T19:46:32.379Z,62.80
2019-02-24T19:49:01.999Z,62.80
2019-02-24T19:51:31.672Z,63.30
2019-02-24T19:54:01.304Z,63.40
2019-02-24T19:56:31.188Z,63.20
2019-02-24T19:59:00.818Z,62.80
2019-02-24T20:01:30.444Z,63.00
2019-02-24T20:04:00.083Z,62.90
2019-02-24T20:06:30.676Z,62.80
2019-02-24T20:09:00.565Z,62.50
2019-02-24T20:11:32.052Z,62.90
2019-02-24T20:14:01.736Z,64.20
2019-02-24T20:16:31.357Z,64.60
2019-02-24T20:19:01.306Z,64.70
2019-02-24T20:21:30.984Z,64.80
2019-02-24T20:24:00.612Z,64.50
2019-02-24T20:26:30.564Z,64.20
2019-02-24T20:29:00.231Z,64.90
2019-02-24T20:31:30.049Z,65.90
2019-02-24T20:33:59.668Z,65.90
2019-02-24T20:36:30.060Z,64.90
2019-02-24T20:38:59.798Z,64.30
2019-02-24T20:41:30.290Z,64.50
2019-02-24T20:44:00.429Z,65.10
2019-02-24T20:46:30.064Z,65.70
2019-02-24T20:48:59.693Z,65.70
2019-02-24T20:51:30.088Z,64.60
2019-02-24T20:53:59.789Z,65.30
2019-02-24T20:56:30.102Z,65.90
2019-02-24T20:58:59.728Z,66.30
2019-02-24T21:01:30.075Z,66.10
2019-02-24T21:03:59.717Z,66.40
2019-02-24T21:06:30.376Z,67.10
2019-02-24T21:09:00.006Z,67.20
2019-02-24T21:11:30.120Z,71.40
2019-02-24T21:13:59.794Z,74.70
2019-02-24T21:16:30.153Z,66.70
2019-02-24T21:18:59.849Z,65.90
2019-02-24T21:21:30.344Z,66.20
2019-02-24T21:24:00.275Z,67.00
2019-02-24T21:26:30.138Z,66.90
2019-02-24T21:29:01.024Z,65.30
2019-02-24T21:31:30.642Z,67.00
2019-02-24T21:34:00.318Z,67.10
2019-02-24T21:36:30.142Z,67.50
2019-02-24T21:39:00.028Z,67.30
2019-02-24T21:41:31.261Z,66.80
2019-02-24T21:44:00.948Z,66.80
2019-02-24T21:46:31.089Z,66.90
2019-02-24T21:49:01.029Z,67.40
2019-02-24T21:51:30.864Z,67.50
2019-02-24T21:54:00.856Z,68.00
2019-02-24T21:56:31.444Z,69.20
2019-02-24T21:59:01.152Z,69.60
2019-02-24T22:01:31.896Z,69.50
2019-02-24T22:04:01.588Z,69.10
2019-02-24T22:06:32.264Z,68.70
2019-02-24T22:09:02.308Z,69.60
2019-02-24T22:11:33.537Z,70.40
2019-02-24T22:14:03.160Z,70.70
2019-02-24T22:16:32.781Z,69.70
2019-02-24T22:19:02.425Z,69.10
2019-02-24T22:21:32.335Z,68.80
2019-02-24T22:24:02.052Z,69.00
2019-02-24T22:26:31.700Z,68.70
2019-02-24T22:29:02.697Z,69.40
2019-02-24T22:31:32.576Z,69.20
2019-02-24T22:34:02.557Z,69.50
2019-02-24T22:36:32.192Z,70.00
2019-02-24T22:39:01.792Z,70.50
2019-02-24T22:41:33.046Z,70.50
2019-02-24T22:44:02.737Z,70.70
2019-02-24T22:46:32.361Z,71.30
2019-02-24T22:49:02.282Z,71.60
2019-02-24T22:51:32.132Z,72.40
2019-02-24T22:54:01.740Z,71.60
2019-02-24T22:56:31.597Z,72.00
2019-02-24T22:59:01.349Z,72.10
2019-02-24T23:01:38.960Z,71.70
2019-02-24T23:04:11.054Z,70.60
2019-02-24T23:06:40.934Z,70.80
2019-02-24T23:09:14.233Z,71.20
2019-02-24T23:11:44.425Z,71.60
2019-02-24T23:14:14.031Z,73.30
2019-02-24T23:16:43.910Z,72.40
2019-02-24T23:19:13.700Z,72.50
2019-02-24T23:21:43.389Z,72.40
2019-02-24T23:24:13.330Z,72.20
2019-02-24T23:26:43.920Z,71.50
2019-02-24T23:29:13.538Z,71.20
2019-02-24T23:31:44.259Z,71.20
2019-02-24T23:34:14.091Z,72.50
2019-02-24T23:36:43.782Z,72.40
2019-02-24T23:39:16.299Z,71.50
2019-02-24T23:41:46.917Z,72.40
2019-02-24T23:44:16.687Z,72.70
2019-02-24T23:46:46.859Z,73.00
2019-02-24T23:49:16.536Z,72.10
2019-02-24T23:51:46.170Z,71.40
2019-02-24T23:54:15.892Z,70.70
2019-02-24T23:56:45.594Z,70.80
2019-02-24T23:59:15.281Z,70.50
